createdAt,value
2018-04-22T00:01:46.701Z,6.33
2018-04-22T00:04:15.347Z,7.73
2018-04-22T00:06:43.668Z,5.90
2018-04-22T00:09:12.124Z,6.10
2018-04-22T00:11:40.486Z,6.40
2018-04-22T00:14:08.824Z,5.60
2018-04-22T00:16:37.859Z,5.53
2018-04-22T00:19:06.215Z,5.47
2018-04-22T00:21:35.238Z,5.50
2018-04-22T00:24:03.510Z,6.43
2018-04-22T00:26:31.950Z,5.77
2018-04-22T00:29:00.972Z,6.37
2018-04-22T00:31:29.390Z,5.57
2018-04-22T00:33:57.666Z,5.40
2018-04-22T00:36:26.126Z,5.20
2018-04-22T00:38:54.517Z,5.43
2018-04-22T00:41:22.857Z,5.77
2018-04-22T00:43:52.194Z,4.87
2018-04-22T00:46:20.523Z,6.20
2018-04-22T00:48:48.951Z,5.20
2018-04-22T00:51:17.230Z,5.70
2018-04-22T00:53:57.355Z,5.20
2018-04-22T00:56:25.759Z,5.30
2018-04-22T00:58:54.178Z,5.00
2018-04-22T01:01:22.444Z,5.30
2018-04-22T01:03:51.602Z,5.07
2018-04-22T01:06:19.875Z,5.23
2018-04-22T01:08:48.208Z,5.60
2018-04-22T01:11:16.462Z,5.83
2018-04-22T01:13:44.980Z,5.70
2018-04-22T01:16:14.011Z,5.27
2018-04-22T01:18:42.340Z,5.30
2018-04-22T01:21:10.753Z,4.97
2018-04-22T01:23:39.014Z,4.87
2018-04-22T01:26:07.515Z,4.93
2018-04-22T01:28:35.933Z,5.23
2018-04-22T01:31:04.190Z,5.03
2018-04-22T01:33:32.628Z,4.50
2018-04-22T01:36:01.091Z,5.63
2018-04-22T01:38:29.445Z,4.90
2018-04-22T01:40:57.840Z,5.17
2018-04-22T01:43:26.143Z,4.90
2018-04-22T01:45:54.714Z,4.37
2018-04-22T01:48:22.979Z,5.23
2018-04-22T01:50:51.645Z,5.47
2018-04-22T01:53:19.984Z,4.87
2018-04-22T01:55:48.410Z,5.13
2018-04-22T01:58:16.686Z,5.10
2018-04-22T02:00:45.093Z,4.60
2018-04-22T02:03:13.779Z,5.37
2018-04-22T02:05:42.239Z,5.37
2018-04-22T02:08:10.634Z,4.80
2018-04-22T02:10:38.925Z,4.80
2018-04-22T02:13:07.966Z,4.83
2018-04-22T02:15:36.337Z,4.77
2018-04-22T02:18:04.754Z,4.97
2018-04-22T02:20:33.036Z,4.50
2018-04-22T02:23:01.297Z,4.63
2018-04-22T02:25:29.567Z,4.30
2018-04-22T02:27:57.909Z,5.17
2018-04-22T02:30:26.186Z,4.57
2018-04-22T02:32:54.474Z,4.40
2018-04-22T02:35:22.733Z,4.27
2018-04-22T02:37:51.035Z,5.30
2018-04-22T02:40:19.513Z,4.53
2018-04-22T02:42:47.870Z,4.53
2018-04-22T02:45:17.219Z,4.60
2018-04-22T02:47:45.493Z,4.70
2018-04-22T02:50:13.958Z,4.37
2018-04-22T02:52:42.303Z,4.67
2018-04-22T02:55:10.605Z,5.70
2018-04-22T02:57:38.882Z,5.07
2018-04-22T03:00:07.391Z,4.53
2018-04-22T03:02:35.787Z,4.43
2018-04-22T03:05:04.050Z,4.70
2018-04-22T03:07:32.322Z,4.23
2018-04-22T03:10:00.720Z,4.50
2018-04-22T03:12:29.001Z,4.93
2018-04-22T03:14:57.260Z,4.60
2018-04-22T03:17:25.532Z,5.00
2018-04-22T03:19:53.819Z,4.70
2018-04-22T03:22:22.091Z,4.13
2018-04-22T03:24:50.351Z,4.73
2018-04-22T03:27:18.689Z,4.70
2018-04-22T03:29:47.753Z,4.13
2018-04-22T03:32:16.101Z,4.83
2018-04-22T03:34:44.476Z,4.60
2018-04-22T03:37:12.741Z,4.10
2018-04-22T03:39:41.174Z,4.03
2018-04-22T03:42:09.626Z,4.60
2018-04-22T03:44:37.953Z,4.43
2018-04-22T03:47:06.979Z,4.40
2018-04-22T03:49:35.504Z,4.40
2018-04-22T03:52:03.765Z,4.20
2018-04-22T03:54:32.033Z,4.30
2018-04-22T03:57:00.306Z,4.00
2018-04-22T03:59:28.582Z,3.80
2018-04-22T04:01:56.881Z,4.40
2018-04-22T04:04:25.382Z,4.90
2018-04-22T04:06:53.661Z,4.20
2018-04-22T04:09:21.936Z,4.20
2018-04-22T04:11:50.206Z,4.33
2018-04-22T04:14:18.465Z,4.27
2018-04-22T04:16:46.861Z,4.13
2018-04-22T04:19:26.967Z,4.03
2018-04-22T04:22:07.137Z,4.10
2018-04-22T04:24:47.408Z,4.63
2018-04-22T04:27:37.209Z,4.20
2018-04-22T04:30:05.644Z,4.30
2018-04-22T04:32:33.925Z,4.30
2018-04-22T04:35:02.363Z,3.87
2018-04-22T04:37:31.419Z,4.00
2018-04-22T04:39:59.674Z,4.60
2018-04-22T04:42:28.465Z,4.10
2018-04-22T04:44:57.055Z,4.00
2018-04-22T04:47:25.313Z,4.30
2018-04-22T04:49:53.583Z,4.73
2018-04-22T04:52:22.008Z,4.00
2018-04-22T04:54:50.275Z,4.47
2018-04-22T04:57:18.529Z,4.10
2018-04-22T04:59:46.805Z,4.03
2018-04-22T05:02:15.073Z,3.93
2018-04-22T05:04:43.348Z,4.03
2018-04-22T05:07:12.082Z,4.03
2018-04-22T05:09:40.638Z,4.13
2018-04-22T05:12:09.029Z,3.97
2018-04-22T05:14:37.345Z,3.93
2018-04-22T05:17:05.777Z,3.87
2018-04-22T05:19:34.774Z,3.90
2018-04-22T05:22:03.173Z,3.80
2018-04-22T05:24:31.437Z,3.90
2018-04-22T05:26:59.931Z,3.87
2018-04-22T05:29:28.283Z,3.90
2018-04-22T05:31:56.973Z,3.90
2018-04-22T05:34:25.513Z,4.10
2018-04-22T05:36:53.996Z,3.60
2018-04-22T05:39:22.297Z,3.90
2018-04-22T05:41:50.872Z,3.80
2018-04-22T05:44:19.216Z,4.00
2018-04-22T05:46:47.491Z,3.60
2018-04-22T05:49:15.875Z,4.20
2018-04-22T05:51:44.321Z,4.17
2018-04-22T05:54:13.336Z,4.23
2018-04-22T05:56:41.697Z,3.83
2018-04-22T05:59:11.434Z,3.67
2018-04-22T06:01:41.089Z,4.47
2018-04-22T06:04:09.365Z,8.23
2018-04-22T06:06:37.658Z,11.23
2018-04-22T06:09:05.980Z,19.03
2018-04-22T06:11:34.246Z,30.33
2018-04-22T06:14:02.737Z,59.67
2018-04-22T06:16:31.470Z,72.90
2018-04-22T06:18:59.900Z,92.10
2018-04-22T06:21:28.828Z,111.47
2018-04-22T06:23:57.329Z,103.63
2018-04-22T06:26:25.635Z,106.83
2018-04-22T06:28:53.929Z,100.90
2018-04-22T06:31:22.339Z,97.77
2018-04-22T06:33:50.609Z,90.73
2018-04-22T06:36:18.889Z,90.87
2018-04-22T06:38:47.227Z,86.67
2018-04-22T06:41:15.544Z,85.63
2018-04-22T06:43:44.581Z,74.60
2018-04-22T06:46:12.898Z,74.93
2018-04-22T06:48:41.375Z,84.13
2018-04-22T06:51:09.672Z,65.87
2018-04-22T06:53:39.041Z,81.03
2018-04-22T06:56:08.083Z,68.27
2018-04-22T06:58:36.367Z,63.30
2018-04-22T07:01:04.678Z,66.57
2018-04-22T07:03:33.144Z,52.00
2018-04-22T07:06:01.447Z,56.77
2018-04-22T07:08:29.860Z,57.80
2018-04-22T07:10:58.309Z,56.20
2018-04-22T07:13:27.512Z,55.80
2018-04-22T07:15:55.962Z,50.40
2018-04-22T07:18:24.336Z,53.40
2018-04-22T07:20:52.757Z,44.37
2018-04-22T07:23:21.127Z,41.40
2018-04-22T07:25:49.450Z,40.47
2018-04-22T07:28:17.880Z,40.33
2018-04-22T07:30:46.213Z,39.97
2018-04-22T07:33:14.642Z,42.23
2018-04-22T07:35:43.014Z,35.70
2018-04-22T07:38:11.415Z,38.67
2018-04-22T07:40:39.735Z,38.60
2018-04-22T07:43:07.967Z,39.10
2018-04-22T07:45:36.264Z,40.33
2018-04-22T07:48:04.598Z,37.10
2018-04-22T07:50:32.912Z,34.60
2018-04-22T07:53:01.950Z,31.87
2018-04-22T07:55:30.258Z,27.80
2018-04-22T07:57:58.746Z,30.37
2018-04-22T08:00:27.097Z,29.70
2018-04-22T08:02:55.483Z,30.57
2018-04-22T08:05:23.750Z,33.23
2018-04-22T08:07:52.027Z,30.93
2018-04-22T08:10:20.343Z,31.63
2018-04-22T08:12:51.157Z,25.87
2018-04-22T08:15:21.276Z,24.77
2018-04-22T08:17:51.558Z,22.77
2018-04-22T08:20:24.291Z,26.87
2018-04-22T08:22:53.554Z,24.47
2018-04-22T08:25:21.991Z,21.50
2018-04-22T08:27:50.333Z,22.43
2018-04-22T08:30:18.741Z,20.83
2018-04-22T08:32:47.787Z,24.40
2018-04-22T08:35:16.330Z,23.90
2018-04-22T08:37:44.717Z,22.83
2018-04-22T08:40:13.790Z,18.27
2018-04-22T08:42:42.051Z,19.93
2018-04-22T08:45:10.377Z,20.37
2018-04-22T08:47:39.240Z,21.53
2018-04-22T08:50:08.477Z,20.53
2018-04-22T08:52:37.578Z,22.33
2018-04-22T08:55:06.272Z,16.13
2018-04-22T08:57:34.695Z,17.63
2018-04-22T09:00:02.945Z,15.10
2018-04-22T09:02:31.229Z,17.47
2018-04-22T09:04:59.661Z,14.37
2018-04-22T09:07:29.894Z,17.60
2018-04-22T09:09:58.314Z,14.93
2018-04-22T09:12:26.807Z,16.57
2018-04-22T09:14:55.265Z,15.23
2018-04-22T09:17:23.737Z,14.77
2018-04-22T09:19:52.011Z,11.87
2018-04-22T09:22:20.298Z,14.17
2018-04-22T09:24:48.598Z,13.57
2018-04-22T09:27:17.195Z,14.70
2018-04-22T09:29:45.474Z,12.07
2018-04-22T09:32:13.759Z,14.27
2018-04-22T09:34:42.086Z,11.37
2018-04-22T09:37:10.396Z,14.77
2018-04-22T09:39:38.847Z,11.30
2018-04-22T09:42:07.129Z,10.17
2018-04-22T09:44:35.395Z,11.10
2018-04-22T09:47:03.681Z,10.20
2018-04-22T09:49:31.989Z,11.57
2018-04-22T09:52:00.440Z,14.40
2018-04-22T09:54:28.828Z,16.03
2018-04-22T09:56:57.130Z,13.97
2018-04-22T09:59:25.761Z,10.20
2018-04-22T10:01:54.008Z,12.23
2018-04-22T10:04:27.944Z,11.23
2018-04-22T10:06:56.544Z,11.03
2018-04-22T10:09:24.930Z,13.20
2018-04-22T10:11:53.219Z,15.43
2018-04-22T10:14:21.683Z,14.73
2018-04-22T10:16:50.080Z,11.30
2018-04-22T10:19:18.572Z,13.83
2018-04-22T10:21:47.452Z,9.50
2018-04-22T10:24:15.785Z,16.13
2018-04-22T10:26:44.057Z,16.27
2018-04-22T10:29:12.567Z,16.00
2018-04-22T10:31:40.898Z,16.80
2018-04-22T10:34:09.601Z,13.80
2018-04-22T10:36:38.629Z,12.93
2018-04-22T10:39:06.903Z,9.80
2018-04-22T10:41:35.190Z,13.70
2018-04-22T10:44:03.505Z,29.37
2018-04-22T10:46:31.833Z,10.33
2018-04-22T10:49:00.094Z,13.67
2018-04-22T10:51:28.427Z,13.03
2018-04-22T10:53:56.760Z,15.47
2018-04-22T10:56:25.296Z,15.63
2018-04-22T10:58:53.572Z,13.73
2018-04-22T11:01:21.830Z,12.30
2018-04-22T11:03:50.166Z,11.10
2018-04-22T11:06:18.573Z,10.87
2018-04-22T11:08:46.881Z,10.23
2018-04-22T11:11:15.150Z,9.60
2018-04-22T11:13:43.530Z,10.43
2018-04-22T11:16:11.801Z,11.70
2018-04-22T11:18:40.119Z,11.13
2018-04-22T11:21:08.579Z,10.60
2018-04-22T11:23:37.211Z,11.20
2018-04-22T11:26:05.654Z,10.07
2018-04-22T11:28:33.932Z,9.07
2018-04-22T11:31:02.207Z,10.33
2018-04-22T11:33:30.678Z,9.77
2018-04-22T11:35:59.227Z,14.03
2018-04-22T11:38:28.024Z,8.50
2018-04-22T11:40:56.645Z,13.47
2018-04-22T11:43:25.309Z,18.23
2018-04-22T11:45:53.866Z,15.53
2018-04-22T11:48:22.152Z,11.83
2018-04-22T11:50:50.514Z,10.40
2018-04-22T11:53:19.014Z,11.07
2018-04-22T11:55:47.288Z,11.23
2018-04-22T11:58:15.550Z,10.37
2018-04-22T12:00:43.824Z,11.27
2018-04-22T12:03:12.224Z,8.03
2018-04-22T12:05:40.486Z,11.73
2018-04-22T12:08:08.862Z,9.20
2018-04-22T12:10:37.962Z,10.07
2018-04-22T12:13:06.337Z,8.87
2018-04-22T12:15:37.496Z,8.00
2018-04-22T12:18:05.853Z,7.87
2018-04-22T12:20:34.260Z,6.93
2018-04-22T12:23:02.579Z,8.47
2018-04-22T12:25:31.606Z,9.30
2018-04-22T12:27:59.931Z,11.17
2018-04-22T12:30:28.347Z,10.57
2018-04-22T12:32:56.612Z,9.23
2018-04-22T12:35:25.265Z,7.80
2018-04-22T12:37:53.575Z,6.83
2018-04-22T12:40:21.820Z,7.93
2018-04-22T12:42:50.221Z,7.93
2018-04-22T12:45:19.298Z,10.83
2018-04-22T12:47:48.436Z,9.43
2018-04-22T12:50:16.656Z,8.33
2018-04-22T12:52:44.916Z,9.17
2018-04-22T12:55:13.331Z,8.30
2018-04-22T12:57:41.771Z,10.37
2018-04-22T13:00:10.592Z,9.60
2018-04-22T13:02:38.920Z,7.17
2018-04-22T13:05:07.157Z,8.80
2018-04-22T13:07:35.631Z,7.47
2018-04-22T13:10:03.909Z,8.10
2018-04-22T13:12:32.202Z,8.17
2018-04-22T13:15:00.494Z,9.93
2018-04-22T13:17:28.805Z,9.23
2018-04-22T13:19:58.116Z,7.47
2018-04-22T13:22:26.374Z,7.93
2018-04-22T13:24:54.646Z,8.17
2018-04-22T13:27:22.955Z,10.93
2018-04-22T13:29:51.220Z,9.23
2018-04-22T13:32:19.718Z,7.53
2018-04-22T13:34:47.977Z,8.63
2018-04-22T13:37:16.517Z,14.97
2018-04-22T13:39:44.963Z,6.97
2018-04-22T13:42:13.330Z,6.93
2018-04-22T13:44:41.891Z,9.80
2018-04-22T13:47:10.210Z,9.47
2018-04-22T13:49:38.671Z,6.93
2018-04-22T13:52:07.167Z,7.70
2018-04-22T13:54:35.442Z,10.43
2018-04-22T13:57:03.740Z,4.70
2018-04-22T13:59:32.179Z,5.03
2018-04-22T14:02:00.494Z,7.03
2018-04-22T14:04:28.740Z,5.73
2018-04-22T14:06:56.994Z,5.00
2018-04-22T14:09:25.258Z,5.13
2018-04-22T14:11:53.535Z,5.27
2018-04-22T14:14:21.826Z,4.73
2018-04-22T14:16:50.239Z,5.73
2018-04-22T14:19:19.446Z,4.47
2018-04-22T14:21:47.740Z,7.97
2018-04-22T14:24:15.990Z,5.03
2018-04-22T14:26:44.473Z,5.57
2018-04-22T14:29:12.727Z,6.20
2018-04-22T14:31:41.398Z,7.37
2018-04-22T14:34:09.657Z,4.30
2018-04-22T14:36:38.030Z,4.53
2018-04-22T14:39:06.314Z,5.23
2018-04-22T14:41:34.577Z,4.90
2018-04-22T14:44:14.669Z,5.23
2018-04-22T14:46:42.943Z,5.17
2018-04-22T14:49:11.460Z,6.30
2018-04-22T14:51:39.806Z,5.43
2018-04-22T14:54:08.070Z,4.37
2018-04-22T14:56:36.341Z,6.93
2018-04-22T14:59:04.601Z,4.70
2018-04-22T15:01:32.949Z,4.40
2018-04-22T15:04:01.351Z,5.07
2018-04-22T15:06:30.379Z,4.33
2018-04-22T15:08:58.781Z,4.70
2018-04-22T15:11:27.280Z,4.83
2018-04-22T15:13:55.542Z,4.93
2018-04-22T15:16:23.841Z,4.60
2018-04-22T15:18:52.286Z,5.57
2018-04-22T15:21:20.940Z,7.33
2018-04-22T15:23:49.374Z,5.27
2018-04-22T15:26:17.673Z,5.03
2018-04-22T15:28:46.089Z,6.97
2018-04-22T15:31:14.475Z,5.20
2018-04-22T15:33:42.821Z,4.97
2018-04-22T15:36:11.383Z,5.10
2018-04-22T15:38:39.657Z,4.47
2018-04-22T15:41:08.103Z,5.13
2018-04-22T15:43:36.633Z,4.43
2018-04-22T15:46:04.894Z,4.27
2018-04-22T15:48:33.203Z,4.50
2018-04-22T15:51:02.441Z,6.90
2018-04-22T15:53:30.763Z,11.47
2018-04-22T15:55:59.453Z,7.13
2018-04-22T15:58:27.886Z,6.80
2018-04-22T16:00:56.313Z,8.70
2018-04-22T16:03:24.642Z,5.70
2018-04-22T16:05:53.049Z,7.23
2018-04-22T16:08:21.365Z,7.50
2018-04-22T16:10:50.088Z,5.37
2018-04-22T16:13:18.483Z,5.73
2018-04-22T16:15:46.837Z,6.67
2018-04-22T16:18:15.102Z,6.30
2018-04-22T16:20:43.367Z,7.10
2018-04-22T16:23:11.646Z,5.70
2018-04-22T16:25:40.055Z,4.20
2018-04-22T16:28:08.671Z,7.07
2018-04-22T16:30:37.442Z,5.83
2018-04-22T16:33:06.037Z,5.07
2018-04-22T16:35:34.446Z,5.37
2018-04-22T16:38:02.722Z,5.00
2018-04-22T16:40:31.242Z,5.73
2018-04-22T16:42:59.535Z,6.97
2018-04-22T16:45:28.613Z,5.73
2018-04-22T16:47:56.947Z,4.40
2018-04-22T16:50:25.596Z,8.20
2018-04-22T16:52:54.020Z,4.33
2018-04-22T16:55:22.430Z,5.57
2018-04-22T16:57:51.467Z,7.17
2018-04-22T17:00:19.783Z,4.60
2018-04-22T17:02:48.195Z,6.97
2018-04-22T17:05:16.616Z,4.73
2018-04-22T17:07:44.877Z,4.63
2018-04-22T17:10:13.352Z,4.30
2018-04-22T17:12:41.614Z,5.80
2018-04-22T17:15:09.910Z,6.83
2018-04-22T17:17:38.185Z,5.40
2018-04-22T17:20:06.481Z,3.87
2018-04-22T17:22:34.758Z,4.90
2018-04-22T17:25:03.252Z,5.80
2018-04-22T17:27:32.302Z,6.90
2018-04-22T17:30:00.651Z,4.77
2018-04-22T17:32:29.092Z,4.10
2018-04-22T17:34:57.468Z,4.37
2018-04-22T17:37:26.508Z,5.73
2018-04-22T17:39:54.762Z,5.17
2018-04-22T17:42:23.787Z,5.47
2018-04-22T17:44:52.496Z,7.40
2018-04-22T17:47:20.906Z,7.03
2018-04-22T17:49:50.102Z,6.47
2018-04-22T17:52:18.374Z,8.93
2018-04-22T17:54:46.620Z,6.43
2018-04-22T17:57:15.019Z,8.17
2018-04-22T17:59:43.304Z,12.30
2018-04-22T18:02:11.787Z,13.50
2018-04-22T18:04:40.081Z,15.37
2018-04-22T18:07:08.605Z,16.23
2018-04-22T18:09:37.198Z,13.30
2018-04-22T18:12:05.590Z,13.90
2018-04-22T18:14:33.866Z,12.80
2018-04-22T18:17:02.137Z,11.97
2018-04-22T18:19:30.406Z,12.90
2018-04-22T18:21:58.731Z,10.90
2018-04-22T18:24:27.766Z,9.53
2018-04-22T18:26:56.035Z,6.23
2018-04-22T18:29:24.306Z,7.27
2018-04-22T18:31:52.612Z,9.17
2018-04-22T18:34:21.013Z,5.60
2018-04-22T18:36:49.369Z,6.13
2018-04-22T18:39:17.761Z,5.87
2018-04-22T18:41:46.155Z,8.20
2018-04-22T18:44:14.443Z,8.97
2018-04-22T18:46:42.735Z,9.57
2018-04-22T18:49:10.986Z,7.97
2018-04-22T18:51:40.208Z,6.33
2018-04-22T18:54:08.684Z,6.10
2018-04-22T18:56:37.943Z,6.73
2018-04-22T18:59:06.347Z,5.20
2018-04-22T19:01:34.605Z,5.73
2018-04-22T19:04:03.085Z,6.93
2018-04-22T19:06:31.403Z,5.43
2018-04-22T19:08:59.826Z,4.27
2018-04-22T19:11:28.213Z,4.90
2018-04-22T19:13:56.506Z,5.70
2018-04-22T19:16:24.805Z,7.07
2018-04-22T19:18:53.350Z,5.57
2018-04-22T19:21:21.668Z,7.03
2018-04-22T19:23:50.136Z,4.00
2018-04-22T19:26:18.491Z,7.23
2018-04-22T19:28:46.913Z,6.57
2018-04-22T19:31:15.187Z,199.03
2018-04-22T19:33:44.239Z,199.67
2018-04-22T19:36:12.601Z,165.13
2018-04-22T19:38:41.276Z,132.30
2018-04-22T19:41:09.719Z,108.13
2018-04-22T19:43:38.016Z,67.37
2018-04-22T19:46:07.060Z,45.87
2018-04-22T19:48:35.383Z,38.27
2018-04-22T19:51:03.861Z,33.20
2018-04-22T19:53:32.190Z,24.57
2018-04-22T19:56:00.475Z,23.80
2018-04-22T19:58:28.753Z,20.97
2018-04-22T20:00:57.040Z,26.60
2018-04-22T20:03:25.369Z,22.27
2018-04-22T20:05:54.025Z,24.93
2018-04-22T20:08:22.414Z,21.33
2018-04-22T20:10:51.151Z,27.00
2018-04-22T20:13:19.530Z,20.83
2018-04-22T20:15:48.049Z,22.20
2018-04-22T20:18:16.307Z,25.13
2018-04-22T20:20:44.585Z,22.13
2018-04-22T20:23:13.070Z,24.73
2018-04-22T20:25:41.355Z,18.63
2018-04-22T20:28:09.786Z,20.60
2018-04-22T20:30:38.201Z,21.27
2018-04-22T20:33:06.875Z,19.40
2018-04-22T20:35:35.313Z,17.73
2018-04-22T20:38:03.575Z,17.60
2018-04-22T20:40:32.617Z,19.07
2018-04-22T20:43:01.005Z,17.27
2018-04-22T20:45:29.365Z,17.37
2018-04-22T20:47:57.635Z,16.03
2018-04-22T20:50:25.937Z,16.93
2018-04-22T20:52:54.352Z,16.57
2018-04-22T20:55:22.619Z,12.80
2018-04-22T20:57:50.894Z,13.10
2018-04-22T21:00:19.397Z,14.00
2018-04-22T21:02:47.731Z,15.50
2018-04-22T21:05:16.113Z,12.00
2018-04-22T21:07:44.492Z,14.93
2018-04-22T21:10:12.815Z,13.97
2018-04-22T21:12:41.874Z,14.43
2018-04-22T21:15:10.243Z,14.83
2018-04-22T21:17:38.575Z,15.87
2018-04-22T21:20:07.609Z,17.70
2018-04-22T21:22:36.016Z,13.37
2018-04-22T21:25:04.324Z,11.70
2018-04-22T21:27:33.353Z,11.77
2018-04-22T21:30:01.702Z,11.90
2018-04-22T21:32:30.756Z,14.07
2018-04-22T21:34:59.025Z,12.43
2018-04-22T21:37:27.287Z,12.80
2018-04-22T21:39:55.868Z,13.70
2018-04-22T21:42:24.254Z,12.00
2018-04-22T21:44:52.770Z,10.20
2018-04-22T21:47:21.063Z,10.10
2018-04-22T21:49:49.335Z,12.90
2018-04-22T21:52:17.596Z,9.10
2018-04-22T21:54:45.871Z,11.70
2018-04-22T21:57:14.233Z,12.00
2018-04-22T21:59:42.526Z,12.07
2018-04-22T22:02:10.786Z,9.03
2018-04-22T22:04:39.316Z,12.00
2018-04-22T22:07:08.370Z,10.13
2018-04-22T22:09:36.675Z,9.03
2018-04-22T22:12:05.183Z,9.97
2018-04-22T22:14:34.414Z,10.67
2018-04-22T22:17:02.694Z,8.73
2018-04-22T22:19:30.950Z,10.90
2018-04-22T22:21:59.354Z,8.57
2018-04-22T22:24:27.646Z,8.57
2018-04-22T22:26:55.949Z,7.07
2018-04-22T22:29:24.990Z,8.40
2018-04-22T22:31:54.083Z,10.43
2018-04-22T22:34:22.381Z,8.97
2018-04-22T22:36:50.702Z,7.73
2018-04-22T22:39:20.183Z,8.00
2018-04-22T22:41:48.733Z,7.13
2018-04-22T22:44:17.052Z,7.77
2018-04-22T22:46:46.203Z,9.20
2018-04-22T22:49:14.529Z,7.40
2018-04-22T22:51:42.955Z,8.27
2018-04-22T22:54:11.576Z,9.23
2018-04-22T22:56:39.930Z,6.83
2018-04-22T22:59:08.195Z,7.97
2018-04-22T23:01:36.677Z,8.13
2018-04-22T23:04:05.059Z,6.97
2018-04-22T23:06:33.439Z,8.73
2018-04-22T23:09:01.859Z,7.17
2018-04-22T23:11:30.892Z,7.30
2018-04-22T23:13:59.208Z,10.30
2018-04-22T23:16:27.509Z,6.83
2018-04-22T23:18:55.969Z,7.00
2018-04-22T23:21:24.290Z,6.33
2018-04-22T23:23:53.321Z,8.03
2018-04-22T23:26:21.652Z,6.87
2018-04-22T23:28:50.688Z,8.53
2018-04-22T23:31:19.067Z,6.97
2018-04-22T23:33:47.550Z,8.03
2018-04-22T23:36:15.812Z,7.20
2018-04-22T23:38:44.250Z,6.73
2018-04-22T23:41:12.544Z,6.53
2018-04-22T23:43:40.918Z,7.93
2018-04-22T23:46:09.183Z,5.83
2018-04-22T23:48:37.445Z,8.60
2018-04-22T23:51:05.810Z,6.40
2018-04-22T23:53:34.451Z,6.03
2018-04-22T23:56:03.478Z,6.47
2018-04-22T23:58:31.875Z,5.27
